Terminal Aerodrome Forecast
Issued by NWS Wilmington, OH

Current Version | Previous Version | Graphics & Text | Print | Product List | Glossary On
Versions: 1 2 3 4 5 6 7 8 9 10 11 12 13 14
930
FTUS41 KILN 232339
TAFCMH
TAF
KCMH 232339Z 2400/2424 06006KT P6SM FEW250
     FM241400 09006KT P6SM FEW250=

USA.gov is the U.S. government's official web portal to all federal, state and local government web resources and services.